sensor_id;sensor_type;location;lat;lon;timestamp;temperature;humidity
65652;SHT30;52350;51.546;7.002;2022-07-29T00:02:17;19.39;55.01
65652;SHT30;52350;51.546;7.002;2022-07-29T00:04:43;19.35;54.78
65652;SHT30;52350;51.546;7.002;2022-07-29T00:07:08;19.31;55.65
65652;SHT30;52350;51.546;7.002;2022-07-29T00:09:33;19.25;56.11
65652;SHT30;52350;51.546;7.002;2022-07-29T00:12:00;19.20;56.30
65652;SHT30;52350;51.546;7.002;2022-07-29T00:14:26;19.20;56.16
65652;SHT30;52350;51.546;7.002;2022-07-29T00:16:52;19.14;56.53
65652;SHT30;52350;51.546;7.002;2022-07-29T00:19:18;19.11;56.16
65652;SHT30;52350;51.546;7.002;2022-07-29T00:21:43;19.08;56.87
65652;SHT30;52350;51.546;7.002;2022-07-29T00:24:09;19.06;57.03
65652;SHT30;52350;51.546;7.002;2022-07-29T00:26:34;19.02;57.37
65652;SHT30;52350;51.546;7.002;2022-07-29T00:29:00;18.96;57.25
65652;SHT30;52350;51.546;7.002;2022-07-29T00:31:26;18.97;56.71
65652;SHT30;52350;51.546;7.002;2022-07-29T00:33:52;18.96;57.07
65652;SHT30;52350;51.546;7.002;2022-07-29T00:36:17;18.90;57.73
65652;SHT30;52350;51.546;7.002;2022-07-29T00:38:43;18.92;56.27
65652;SHT30;52350;51.546;7.002;2022-07-29T00:41:10;18.93;56.34
65652;SHT30;52350;51.546;7.002;2022-07-29T00:43:36;18.95;56.04
65652;SHT30;52350;51.546;7.002;2022-07-29T00:46:02;18.90;56.52
65652;SHT30;52350;51.546;7.002;2022-07-29T00:48:28;18.92;56.65
65652;SHT30;52350;51.546;7.002;2022-07-29T00:50:53;18.90;57.32
65652;SHT30;52350;51.546;7.002;2022-07-29T00:53:21;18.86;57.03
65652;SHT30;52350;51.546;7.002;2022-07-29T00:55:46;18.83;57.31
65652;SHT30;52350;51.546;7.002;2022-07-29T00:58:12;18.82;57.33
65652;SHT30;52350;51.546;7.002;2022-07-29T01:00:38;18.77;57.21
65652;SHT30;52350;51.546;7.002;2022-07-29T01:03:06;18.75;57.94
65652;SHT30;52350;51.546;7.002;2022-07-29T01:05:32;18.70;58.05
65652;SHT30;52350;51.546;7.002;2022-07-29T01:07:59;18.68;57.28
65652;SHT30;52350;51.546;7.002;2022-07-29T01:10:25;18.63;57.73
65652;SHT30;52350;51.546;7.002;2022-07-29T01:12:51;18.62;57.90
65652;SHT30;52350;51.546;7.002;2022-07-29T01:15:19;18.63;57.35
65652;SHT30;52350;51.546;7.002;2022-07-29T01:31:46;18.55;57.77
65652;SHT30;52350;51.546;7.002;2022-07-29T01:34:15;18.55;57.66
65652;SHT30;52350;51.546;7.002;2022-07-29T01:36:48;18.52;57.37
65652;SHT30;52350;51.546;7.002;2022-07-29T01:39:27;18.53;57.62
65652;SHT30;52350;51.546;7.002;2022-07-29T01:50:24;18.37;59.26
65652;SHT30;52350;51.546;7.002;2022-07-29T01:52:56;18.30;59.57
65652;SHT30;52350;51.546;7.002;2022-07-29T01:55:27;18.28;59.69
65652;SHT30;52350;51.546;7.002;2022-07-29T01:57:56;18.31;58.85
65652;SHT30;52350;51.546;7.002;2022-07-29T02:00:23;18.27;59.73
65652;SHT30;52350;51.546;7.002;2022-07-29T02:02:51;18.30;58.80
65652;SHT30;52350;51.546;7.002;2022-07-29T02:05:20;18.33;58.79
65652;SHT30;52350;51.546;7.002;2022-07-29T02:07:48;18.30;59.26
65652;SHT30;52350;51.546;7.002;2022-07-29T02:10:16;18.24;60.10
65652;SHT30;52350;51.546;7.002;2022-07-29T02:12:45;18.25;60.15
65652;SHT30;52350;51.546;7.002;2022-07-29T02:15:12;18.21;60.40
65652;SHT30;52350;51.546;7.002;2022-07-29T02:17:50;18.20;60.71
65652;SHT30;52350;51.546;7.002;2022-07-29T02:20:19;18.20;60.28
65652;SHT30;52350;51.546;7.002;2022-07-29T02:22:44;18.14;60.58
65652;SHT30;52350;51.546;7.002;2022-07-29T02:25:12;18.08;60.59
65652;SHT30;52350;51.546;7.002;2022-07-29T02:27:39;18.04;60.84
65652;SHT30;52350;51.546;7.002;2022-07-29T02:30:06;18.06;60.67
65652;SHT30;52350;51.546;7.002;2022-07-29T02:32:34;18.07;60.69
65652;SHT30;52350;51.546;7.002;2022-07-29T02:35:02;18.04;60.55
65652;SHT30;52350;51.546;7.002;2022-07-29T02:37:28;17.99;60.89
65652;SHT30;52350;51.546;7.002;2022-07-29T02:39:55;17.97;60.26
65652;SHT30;52350;51.546;7.002;2022-07-29T02:42:23;17.93;60.66
65652;SHT30;52350;51.546;7.002;2022-07-29T02:44:51;17.86;61.47
65652;SHT30;52350;51.546;7.002;2022-07-29T02:50:22;17.73;62.38
65652;SHT30;52350;51.546;7.002;2022-07-29T02:53:07;17.69;62.16
65652;SHT30;52350;51.546;7.002;2022-07-29T02:55:45;17.66;62.18
65652;SHT30;52350;51.546;7.002;2022-07-29T02:58:21;17.63;63.07
65652;SHT30;52350;51.546;7.002;2022-07-29T03:00:53;17.59;63.37
65652;SHT30;52350;51.546;7.002;2022-07-29T03:03:21;17.59;62.74
65652;SHT30;52350;51.546;7.002;2022-07-29T03:05:52;17.62;62.76
65652;SHT30;52350;51.546;7.002;2022-07-29T03:08:20;17.63;62.80
65652;SHT30;52350;51.546;7.002;2022-07-29T03:10:47;17.68;63.14
65652;SHT30;52350;51.546;7.002;2022-07-29T03:13:13;17.71;62.96
65652;SHT30;52350;51.546;7.002;2022-07-29T03:15:42;17.87;61.57
65652;SHT30;52350;51.546;7.002;2022-07-29T03:18:09;17.93;60.78
65652;SHT30;52350;51.546;7.002;2022-07-29T03:20:35;18.04;60.29
65652;SHT30;52350;51.546;7.002;2022-07-29T03:23:02;18.10;59.64
65652;SHT30;52350;51.546;7.002;2022-07-29T03:25:29;18.08;60.26
65652;SHT30;52350;51.546;7.002;2022-07-29T03:27:55;18.20;59.94
65652;SHT30;52350;51.546;7.002;2022-07-29T03:30:21;18.17;59.68
65652;SHT30;52350;51.546;7.002;2022-07-29T03:32:47;18.14;59.86
65652;SHT30;52350;51.546;7.002;2022-07-29T03:35:14;18.07;60.51
65652;SHT30;52350;51.546;7.002;2022-07-29T03:37:42;18.03;61.05
65652;SHT30;52350;51.546;7.002;2022-07-29T03:40:08;18.04;60.95
65652;SHT30;52350;51.546;7.002;2022-07-29T03:42:37;18.08;61.07
65652;SHT30;52350;51.546;7.002;2022-07-29T03:45:06;18.01;60.90
65652;SHT30;52350;51.546;7.002;2022-07-29T03:47:35;17.93;61.17
65652;SHT30;52350;51.546;7.002;2022-07-29T03:50:07;17.94;61.81
65652;SHT30;52350;51.546;7.002;2022-07-29T03:52:35;17.99;62.01
65652;SHT30;52350;51.546;7.002;2022-07-29T03:55:01;18.00;61.21
65652;SHT30;52350;51.546;7.002;2022-07-29T03:57:28;17.96;61.10
65652;SHT30;52350;51.546;7.002;2022-07-29T03:59:55;17.90;61.19
65652;SHT30;52350;51.546;7.002;2022-07-29T04:02:22;17.93;61.27
65652;SHT30;52350;51.546;7.002;2022-07-29T04:04:49;17.91;61.72
65652;SHT30;52350;51.546;7.002;2022-07-29T04:07:15;17.91;61.85
65652;SHT30;52350;51.546;7.002;2022-07-29T04:09:41;18.00;61.11
65652;SHT30;52350;51.546;7.002;2022-07-29T04:12:07;18.03;60.47
65652;SHT30;52350;51.546;7.002;2022-07-29T04:14:33;18.08;60.18
65652;SHT30;52350;51.546;7.002;2022-07-29T04:17:02;18.03;60.47
65652;SHT30;52350;51.546;7.002;2022-07-29T04:19:28;18.04;60.34
65652;SHT30;52350;51.546;7.002;2022-07-29T04:21:54;18.04;60.86
65652;SHT30;52350;51.546;7.002;2022-07-29T04:24:20;17.97;61.25
65652;SHT30;52350;51.546;7.002;2022-07-29T04:26:46;18.00;61.22
65652;SHT30;52350;51.546;7.002;2022-07-29T04:29:12;17.99;60.95
65652;SHT30;52350;51.546;7.002;2022-07-29T04:31:39;18.07;62.54
65652;SHT30;52350;51.546;7.002;2022-07-29T04:34:05;17.90;64.54
65652;SHT30;52350;51.546;7.002;2022-07-29T04:36:33;17.76;67.21
65652;SHT30;52350;51.546;7.002;2022-07-29T04:38:58;17.55;67.82
65652;SHT30;52350;51.546;7.002;2022-07-29T04:41:24;17.37;68.48
65652;SHT30;52350;51.546;7.002;2022-07-29T04:43:49;17.26;70.14
65652;SHT30;52350;51.546;7.002;2022-07-29T04:46:14;17.11;70.91
65652;SHT30;52350;51.546;7.002;2022-07-29T04:48:40;16.94;72.52
65652;SHT30;52350;51.546;7.002;2022-07-29T04:51:05;16.93;71.77
65652;SHT30;52350;51.546;7.002;2022-07-29T04:53:31;16.92;71.71
65652;SHT30;52350;51.546;7.002;2022-07-29T04:55:56;16.84;71.68
65652;SHT30;52350;51.546;7.002;2022-07-29T04:58:22;16.97;73.32
65652;SHT30;52350;51.546;7.002;2022-07-29T05:00:48;16.92;72.52
65652;SHT30;52350;51.546;7.002;2022-07-29T05:03:14;16.94;72.03
65652;SHT30;52350;51.546;7.002;2022-07-29T05:05:40;16.90;72.74
65652;SHT30;52350;51.546;7.002;2022-07-29T05:08:05;16.89;73.35
65652;SHT30;52350;51.546;7.002;2022-07-29T05:10:31;16.93;73.44
65652;SHT30;52350;51.546;7.002;2022-07-29T05:12:58;16.94;72.74
65652;SHT30;52350;51.546;7.002;2022-07-29T05:15:24;16.97;72.44
65652;SHT30;52350;51.546;7.002;2022-07-29T05:17:49;17.04;72.02
65652;SHT30;52350;51.546;7.002;2022-07-29T05:20:15;17.10;72.42
65652;SHT30;52350;51.546;7.002;2022-07-29T05:22:40;17.16;71.51
65652;SHT30;52350;51.546;7.002;2022-07-29T05:25:06;17.18;71.11
65652;SHT30;52350;51.546;7.002;2022-07-29T05:27:31;17.10;69.88
65652;SHT30;52350;51.546;7.002;2022-07-29T05:29:57;17.18;68.54
65652;SHT30;52350;51.546;7.002;2022-07-29T05:32:22;17.17;69.32
65652;SHT30;52350;51.546;7.002;2022-07-29T05:34:48;17.16;69.80
65652;SHT30;52350;51.546;7.002;2022-07-29T05:37:13;17.16;70.19
65652;SHT30;52350;51.546;7.002;2022-07-29T05:39:39;17.24;68.88
65652;SHT30;52350;51.546;7.002;2022-07-29T05:42:09;17.16;69.26
65652;SHT30;52350;51.546;7.002;2022-07-29T05:44:39;17.20;69.52
65652;SHT30;52350;51.546;7.002;2022-07-29T05:47:05;17.26;69.32
65652;SHT30;52350;51.546;7.002;2022-07-29T05:49:31;17.46;66.38
65652;SHT30;52350;51.546;7.002;2022-07-29T05:51:57;17.58;65.94
65652;SHT30;52350;51.546;7.002;2022-07-29T05:54:23;17.48;67.50
65652;SHT30;52350;51.546;7.002;2022-07-29T05:56:48;17.48;68.92
65652;SHT30;52350;51.546;7.002;2022-07-29T05:59:14;17.38;69.34
65652;SHT30;52350;51.546;7.002;2022-07-29T06:01:39;17.37;69.51
65652;SHT30;52350;51.546;7.002;2022-07-29T06:04:06;17.31;69.92
65652;SHT30;52350;51.546;7.002;2022-07-29T06:06:32;17.34;69.15
65652;SHT30;52350;51.546;7.002;2022-07-29T06:08:58;17.38;68.44
65652;SHT30;52350;51.546;7.002;2022-07-29T06:11:24;17.34;68.83
65652;SHT30;52350;51.546;7.002;2022-07-29T06:13:50;17.37;69.77
65652;SHT30;52350;51.546;7.002;2022-07-29T06:16:15;17.42;70.40
65652;SHT30;52350;51.546;7.002;2022-07-29T06:18:40;17.37;70.09
65652;SHT30;52350;51.546;7.002;2022-07-29T06:21:09;17.44;69.58
65652;SHT30;52350;51.546;7.002;2022-07-29T06:23:36;17.42;68.67
65652;SHT30;52350;51.546;7.002;2022-07-29T06:26:04;17.45;68.37
65652;SHT30;52350;51.546;7.002;2022-07-29T06:28:30;17.46;68.42
65652;SHT30;52350;51.546;7.002;2022-07-29T06:30:56;17.49;68.77
65652;SHT30;52350;51.546;7.002;2022-07-29T06:33:21;17.46;68.77
65652;SHT30;52350;51.546;7.002;2022-07-29T06:35:47;17.49;69.13
65652;SHT30;52350;51.546;7.002;2022-07-29T06:38:13;17.51;68.29
65652;SHT30;52350;51.546;7.002;2022-07-29T06:40:42;17.55;68.33
65652;SHT30;52350;51.546;7.002;2022-07-29T06:43:32;17.58;68.62
65652;SHT30;52350;51.546;7.002;2022-07-29T06:46:06;17.72;69.27
65652;SHT30;52350;51.546;7.002;2022-07-29T06:48:39;17.94;68.64
65652;SHT30;52350;51.546;7.002;2022-07-29T06:51:05;17.79;70.07
65652;SHT30;52350;51.546;7.002;2022-07-29T06:53:32;17.69;70.76
65652;SHT30;52350;51.546;7.002;2022-07-29T06:55:58;17.65;71.42
65652;SHT30;52350;51.546;7.002;2022-07-29T06:58:25;17.65;72.02
65652;SHT30;52350;51.546;7.002;2022-07-29T07:00:51;17.72;72.29
65652;SHT30;52350;51.546;7.002;2022-07-29T07:03:16;17.82;72.90
65652;SHT30;52350;51.546;7.002;2022-07-29T07:05:43;17.93;72.60
65652;SHT30;52350;51.546;7.002;2022-07-29T07:08:10;17.93;72.64
65652;SHT30;52350;51.546;7.002;2022-07-29T07:10:36;18.04;71.74
65652;SHT30;52350;51.546;7.002;2022-07-29T07:13:02;18.08;70.71
65652;SHT30;52350;51.546;7.002;2022-07-29T07:15:29;18.24;70.58
65652;SHT30;52350;51.546;7.002;2022-07-29T07:17:55;18.31;68.59
65652;SHT30;52350;51.546;7.002;2022-07-29T07:20:20;18.40;69.03
65652;SHT30;52350;51.546;7.002;2022-07-29T07:22:45;18.48;65.24
65652;SHT30;52350;51.546;7.002;2022-07-29T07:25:11;18.47;65.87
65652;SHT30;52350;51.546;7.002;2022-07-29T07:27:38;18.49;66.36
65652;SHT30;52350;51.546;7.002;2022-07-29T07:30:04;18.55;66.59
65652;SHT30;52350;51.546;7.002;2022-07-29T07:32:34;18.58;65.83
65652;SHT30;52350;51.546;7.002;2022-07-29T07:35:01;18.62;65.48
65652;SHT30;52350;51.546;7.002;2022-07-29T07:37:26;18.68;65.63
65652;SHT30;52350;51.546;7.002;2022-07-29T07:39:52;18.70;65.47
65652;SHT30;52350;51.546;7.002;2022-07-29T07:42:18;18.76;65.14
65652;SHT30;52350;51.546;7.002;2022-07-29T07:44:44;18.76;65.65
65652;SHT30;52350;51.546;7.002;2022-07-29T07:47:13;18.83;65.64
65652;SHT30;52350;51.546;7.002;2022-07-29T07:49:48;18.87;64.98
65652;SHT30;52350;51.546;7.002;2022-07-29T07:52:15;18.89;65.99
65652;SHT30;52350;51.546;7.002;2022-07-29T07:54:41;18.92;66.21
65652;SHT30;52350;51.546;7.002;2022-07-29T07:57:07;18.95;66.87
65652;SHT30;52350;51.546;7.002;2022-07-29T07:59:33;18.95;66.70
65652;SHT30;52350;51.546;7.002;2022-07-29T08:01:59;18.92;66.65
65652;SHT30;52350;51.546;7.002;2022-07-29T08:04:25;18.92;66.57
65652;SHT30;52350;51.546;7.002;2022-07-29T08:06:51;18.99;66.14
65652;SHT30;52350;51.546;7.002;2022-07-29T08:09:19;19.03;65.95
65652;SHT30;52350;51.546;7.002;2022-07-29T08:11:45;19.10;66.76
65652;SHT30;52350;51.546;7.002;2022-07-29T08:14:10;19.13;66.86
65652;SHT30;52350;51.546;7.002;2022-07-29T08:16:36;19.06;67.35
65652;SHT30;52350;51.546;7.002;2022-07-29T08:19:01;18.97;66.95
65652;SHT30;52350;51.546;7.002;2022-07-29T08:21:27;19.03;67.19
65652;SHT30;52350;51.546;7.002;2022-07-29T08:23:53;18.95;67.93
65652;SHT30;52350;51.546;7.002;2022-07-29T08:26:38;18.93;68.37
65652;SHT30;52350;51.546;7.002;2022-07-29T08:29:03;18.90;67.80
65652;SHT30;52350;51.546;7.002;2022-07-29T08:31:29;18.85;68.12
65652;SHT30;52350;51.546;7.002;2022-07-29T08:33:54;18.83;68.01
65652;SHT30;52350;51.546;7.002;2022-07-29T08:36:21;18.80;67.62
65652;SHT30;52350;51.546;7.002;2022-07-29T08:38:46;18.85;67.79
65652;SHT30;52350;51.546;7.002;2022-07-29T08:41:13;18.87;68.05
65652;SHT30;52350;51.546;7.002;2022-07-29T08:43:39;18.80;68.83
65652;SHT30;52350;51.546;7.002;2022-07-29T08:46:05;18.77;69.10
65652;SHT30;52350;51.546;7.002;2022-07-29T08:48:31;18.72;70.63
65652;SHT30;52350;51.546;7.002;2022-07-29T08:50:57;18.79;70.48
65652;SHT30;52350;51.546;7.002;2022-07-29T08:53:24;18.86;70.34
65652;SHT30;52350;51.546;7.002;2022-07-29T08:55:51;19.02;70.02
65652;SHT30;52350;51.546;7.002;2022-07-29T08:58:18;19.11;68.85
65652;SHT30;52350;51.546;7.002;2022-07-29T09:00:51;19.25;68.14
65652;SHT30;52350;51.546;7.002;2022-07-29T09:03:18;19.32;68.53
65652;SHT30;52350;51.546;7.002;2022-07-29T09:05:47;19.35;68.74
65652;SHT30;52350;51.546;7.002;2022-07-29T09:08:14;19.41;69.36
65652;SHT30;52350;51.546;7.002;2022-07-29T09:10:40;19.41;69.74
65652;SHT30;52350;51.546;7.002;2022-07-29T09:13:06;19.35;68.99
65652;SHT30;52350;51.546;7.002;2022-07-29T09:15:32;19.21;69.61
65652;SHT30;52350;51.546;7.002;2022-07-29T09:17:57;19.16;70.47
65652;SHT30;52350;51.546;7.002;2022-07-29T09:20:24;19.14;71.01
65652;SHT30;52350;51.546;7.002;2022-07-29T09:23:11;19.07;70.89
65652;SHT30;52350;51.546;7.002;2022-07-29T09:25:40;19.04;70.79
65652;SHT30;52350;51.546;7.002;2022-07-29T09:28:13;19.00;71.33
65652;SHT30;52350;51.546;7.002;2022-07-29T09:30:54;19.04;71.45
65652;SHT30;52350;51.546;7.002;2022-07-29T09:33:22;19.00;70.65
65652;SHT30;52350;51.546;7.002;2022-07-29T09:36:05;18.89;71.71
65652;SHT30;52350;51.546;7.002;2022-07-29T09:38:34;18.82;73.17
65652;SHT30;52350;51.546;7.002;2022-07-29T09:41:02;18.69;74.31
65652;SHT30;52350;51.546;7.002;2022-07-29T09:43:29;18.53;74.42
65652;SHT30;52350;51.546;7.002;2022-07-29T09:45:54;18.40;75.16
65652;SHT30;52350;51.546;7.002;2022-07-29T09:48:21;18.31;75.84
65652;SHT30;52350;51.546;7.002;2022-07-29T09:50:50;18.25;76.32
65652;SHT30;52350;51.546;7.002;2022-07-29T09:53:30;18.23;79.03
65652;SHT30;52350;51.546;7.002;2022-07-29T09:56:01;18.31;78.01
65652;SHT30;52350;51.546;7.002;2022-07-29T09:58:27;18.47;78.34
65652;SHT30;52350;51.546;7.002;2022-07-29T10:00:53;18.56;78.05
65652;SHT30;52350;51.546;7.002;2022-07-29T10:03:20;18.61;77.65
65652;SHT30;52350;51.546;7.002;2022-07-29T10:05:46;18.72;76.26
65652;SHT30;52350;51.546;7.002;2022-07-29T10:08:28;18.75;75.48
65652;SHT30;52350;51.546;7.002;2022-07-29T10:11:02;18.73;75.09
65652;SHT30;52350;51.546;7.002;2022-07-29T10:13:34;18.70;73.21
65652;SHT30;52350;51.546;7.002;2022-07-29T10:16:00;18.65;73.60
65652;SHT30;52350;51.546;7.002;2022-07-29T10:18:26;18.59;73.87
65652;SHT30;52350;51.546;7.002;2022-07-29T10:20:52;18.58;74.12
65652;SHT30;52350;51.546;7.002;2022-07-29T10:23:17;18.56;74.35
65652;SHT30;52350;51.546;7.002;2022-07-29T10:25:45;18.59;75.09
65652;SHT30;52350;51.546;7.002;2022-07-29T10:28:11;18.66;75.62
65652;SHT30;52350;51.546;7.002;2022-07-29T10:30:36;18.82;76.06
65652;SHT30;52350;51.546;7.002;2022-07-29T10:38:43;19.06;76.22
65652;SHT30;52350;51.546;7.002;2022-07-29T10:46:34;19.13;75.51
65652;SHT30;52350;51.546;7.002;2022-07-29T10:49:11;19.10;75.29
65652;SHT30;52350;51.546;7.002;2022-07-29T10:57:37;19.34;73.88
65652;SHT30;52350;51.546;7.002;2022-07-29T11:05:13;19.63;72.03
65652;SHT30;52350;51.546;7.002;2022-07-29T11:10:39;20.17;70.54
65652;SHT30;52350;51.546;7.002;2022-07-29T11:13:05;20.40;69.44
65652;SHT30;52350;51.546;7.002;2022-07-29T11:15:51;20.75;68.05
65652;SHT30;52350;51.546;7.002;2022-07-29T11:18:20;21.24;67.43
65652;SHT30;52350;51.546;7.002;2022-07-29T11:20:46;21.72;65.13
65652;SHT30;52350;51.546;7.002;2022-07-29T11:23:56;22.27;61.40
65652;SHT30;52350;51.546;7.002;2022-07-29T11:31:34;22.72;58.94
65652;SHT30;52350;51.546;7.002;2022-07-29T11:39:31;24.93;55.12
65652;SHT30;52350;51.546;7.002;2022-07-29T11:44:55;26.27;49.43
65652;SHT30;52350;51.546;7.002;2022-07-29T11:47:23;26.56;48.28
65652;SHT30;52350;51.546;7.002;2022-07-29T11:49:52;27.59;46.83
65652;SHT30;52350;51.546;7.002;2022-07-29T11:52:19;29.04;42.91
65652;SHT30;52350;51.546;7.002;2022-07-29T11:54:47;29.35;42.23
65652;SHT30;52350;51.546;7.002;2022-07-29T11:57:14;29.17;42.19
65652;SHT30;52350;51.546;7.002;2022-07-29T11:59:42;29.44;41.66
65652;SHT30;52350;51.546;7.002;2022-07-29T12:02:10;29.24;42.46
65652;SHT30;52350;51.546;7.002;2022-07-29T12:04:55;28.45;44.73
65652;SHT30;52350;51.546;7.002;2022-07-29T12:07:29;29.17;40.73
65652;SHT30;52350;51.546;7.002;2022-07-29T12:09:58;30.36;39.12
65652;SHT30;52350;51.546;7.002;2022-07-29T12:12:25;31.34;38.18
65652;SHT30;52350;51.546;7.002;2022-07-29T12:14:51;31.65;37.33
65652;SHT30;52350;51.546;7.002;2022-07-29T12:17:26;31.48;37.21
65652;SHT30;52350;51.546;7.002;2022-07-29T12:19:57;31.52;36.66
65652;SHT30;52350;51.546;7.002;2022-07-29T12:22:29;30.76;38.24
65652;SHT30;52350;51.546;7.002;2022-07-29T12:25:00;29.74;40.04
65652;SHT30;52350;51.546;7.002;2022-07-29T12:27:28;28.50;43.21
65652;SHT30;52350;51.546;7.002;2022-07-29T12:32:36;26.56;46.11
65652;SHT30;52350;51.546;7.002;2022-07-29T12:35:06;26.06;46.07
65652;SHT30;52350;51.546;7.002;2022-07-29T12:37:38;25.49;47.08
65652;SHT30;52350;51.546;7.002;2022-07-29T12:40:06;25.16;48.08
65652;SHT30;52350;51.546;7.002;2022-07-29T12:42:33;25.06;47.34
65652;SHT30;52350;51.546;7.002;2022-07-29T12:44:59;25.03;50.15
65652;SHT30;52350;51.546;7.002;2022-07-29T12:47:26;25.10;48.29
65652;SHT30;52350;51.546;7.002;2022-07-29T12:50:06;25.37;49.02
65652;SHT30;52350;51.546;7.002;2022-07-29T12:52:36;25.42;47.80
65652;SHT30;52350;51.546;7.002;2022-07-29T12:55:02;25.39;48.50
65652;SHT30;52350;51.546;7.002;2022-07-29T12:57:29;25.33;47.73
65652;SHT30;52350;51.546;7.002;2022-07-29T13:00:09;25.28;50.54
65652;SHT30;52350;51.546;7.002;2022-07-29T13:02:38;25.20;49.36
65652;SHT30;52350;51.546;7.002;2022-07-29T13:05:05;25.17;50.46
65652;SHT30;52350;51.546;7.002;2022-07-29T13:07:31;25.02;50.95
65652;SHT30;52350;51.546;7.002;2022-07-29T13:10:10;24.90;50.55
65652;SHT30;52350;51.546;7.002;2022-07-29T13:15:30;24.57;54.42
65652;SHT30;52350;51.546;7.002;2022-07-29T13:17:56;24.40;53.32
65652;SHT30;52350;51.546;7.002;2022-07-29T13:20:26;24.47;52.96
65652;SHT30;52350;51.546;7.002;2022-07-29T13:22:55;24.62;53.32
65652;SHT30;52350;51.546;7.002;2022-07-29T13:25:29;25.04;52.98
65652;SHT30;52350;51.546;7.002;2022-07-29T13:27:56;25.42;50.94
65652;SHT30;52350;51.546;7.002;2022-07-29T13:30:23;25.64;49.54
65652;SHT30;52350;51.546;7.002;2022-07-29T13:32:49;25.82;49.44
65652;SHT30;52350;51.546;7.002;2022-07-29T13:35:15;26.03;50.21
65652;SHT30;52350;51.546;7.002;2022-07-29T13:37:41;25.96;49.60
65652;SHT30;52350;51.546;7.002;2022-07-29T13:40:07;25.72;48.45
65652;SHT30;52350;51.546;7.002;2022-07-29T13:42:34;25.65;49.62
65652;SHT30;52350;51.546;7.002;2022-07-29T13:44:59;25.49;51.38
65652;SHT30;52350;51.546;7.002;2022-07-29T13:47:26;25.37;51.07
65652;SHT30;52350;51.546;7.002;2022-07-29T13:49:52;25.44;49.25
65652;SHT30;52350;51.546;7.002;2022-07-29T13:52:18;25.69;50.32
65652;SHT30;52350;51.546;7.002;2022-07-29T13:54:44;25.71;50.13
65652;SHT30;52350;51.546;7.002;2022-07-29T13:57:10;25.82;50.85
65652;SHT30;52350;51.546;7.002;2022-07-29T13:59:37;25.58;52.16
65652;SHT30;52350;51.546;7.002;2022-07-29T14:02:04;25.41;52.36
65652;SHT30;52350;51.546;7.002;2022-07-29T14:04:30;25.23;53.28
65652;SHT30;52350;51.546;7.002;2022-07-29T14:06:56;25.17;53.68
65652;SHT30;52350;51.546;7.002;2022-07-29T14:09:22;25.13;53.78
65652;SHT30;52350;51.546;7.002;2022-07-29T14:11:47;25.13;53.93
65652;SHT30;52350;51.546;7.002;2022-07-29T14:14:15;24.93;53.68
65652;SHT30;52350;51.546;7.002;2022-07-29T14:16:40;24.87;54.63
65652;SHT30;52350;51.546;7.002;2022-07-29T14:19:06;24.69;54.17
65652;SHT30;52350;51.546;7.002;2022-07-29T14:21:32;24.65;55.05
65652;SHT30;52350;51.546;7.002;2022-07-29T14:23:57;24.52;56.48
65652;SHT30;52350;51.546;7.002;2022-07-29T14:26:23;24.52;55.99
65652;SHT30;52350;51.546;7.002;2022-07-29T14:28:48;24.52;56.45
65652;SHT30;52350;51.546;7.002;2022-07-29T14:31:14;24.45;55.58
65652;SHT30;52350;51.546;7.002;2022-07-29T14:33:40;24.40;55.67
65652;SHT30;52350;51.546;7.002;2022-07-29T14:36:06;24.35;55.81
65652;SHT30;52350;51.546;7.002;2022-07-29T14:38:31;24.32;56.05
65652;SHT30;52350;51.546;7.002;2022-07-29T14:40:57;24.27;56.57
65652;SHT30;52350;51.546;7.002;2022-07-29T14:43:22;24.27;56.59
65652;SHT30;52350;51.546;7.002;2022-07-29T14:45:48;24.21;57.54
65652;SHT30;52350;51.546;7.002;2022-07-29T14:48:14;24.13;56.68
65652;SHT30;52350;51.546;7.002;2022-07-29T14:50:39;24.06;56.76
65652;SHT30;52350;51.546;7.002;2022-07-29T14:53:05;24.03;56.97
65652;SHT30;52350;51.546;7.002;2022-07-29T14:55:30;23.95;56.78
65652;SHT30;52350;51.546;7.002;2022-07-29T14:57:56;23.92;57.29
65652;SHT30;52350;51.546;7.002;2022-07-29T15:00:24;23.82;57.39
65652;SHT30;52350;51.546;7.002;2022-07-29T15:02:50;23.82;57.82
65652;SHT30;52350;51.546;7.002;2022-07-29T15:05:16;23.92;57.45
65652;SHT30;52350;51.546;7.002;2022-07-29T15:07:42;24.00;57.05
65652;SHT30;52350;51.546;7.002;2022-07-29T15:10:08;24.03;56.88
65652;SHT30;52350;51.546;7.002;2022-07-29T15:12:34;24.10;56.44
65652;SHT30;52350;51.546;7.002;2022-07-29T15:14:59;24.06;56.28
65652;SHT30;52350;51.546;7.002;2022-07-29T15:17:25;24.03;56.63
65652;SHT30;52350;51.546;7.002;2022-07-29T15:19:50;24.18;55.60
65652;SHT30;52350;51.546;7.002;2022-07-29T15:22:16;24.20;55.14
65652;SHT30;52350;51.546;7.002;2022-07-29T15:24:41;24.18;54.57
65652;SHT30;52350;51.546;7.002;2022-07-29T15:27:07;24.18;54.86
65652;SHT30;52350;51.546;7.002;2022-07-29T15:29:32;24.16;56.02
65652;SHT30;52350;51.546;7.002;2022-07-29T15:31:58;24.12;55.34
65652;SHT30;52350;51.546;7.002;2022-07-29T15:34:23;24.04;56.18
65652;SHT30;52350;51.546;7.002;2022-07-29T15:36:50;24.10;54.83
65652;SHT30;52350;51.546;7.002;2022-07-29T15:39:16;24.09;54.80
65652;SHT30;52350;51.546;7.002;2022-07-29T15:41:42;24.13;55.10
65652;SHT30;52350;51.546;7.002;2022-07-29T15:44:07;24.06;55.91
65652;SHT30;52350;51.546;7.002;2022-07-29T15:46:33;24.03;55.45
65652;SHT30;52350;51.546;7.002;2022-07-29T15:49:17;24.03;55.30
65652;SHT30;52350;51.546;7.002;2022-07-29T15:51:42;24.03;54.94
65652;SHT30;52350;51.546;7.002;2022-07-29T15:54:08;23.99;55.17
65652;SHT30;52350;51.546;7.002;2022-07-29T15:56:33;23.95;54.06
65652;SHT30;52350;51.546;7.002;2022-07-29T15:59:00;23.97;54.26
65652;SHT30;52350;51.546;7.002;2022-07-29T16:01:25;23.99;54.14
65652;SHT30;52350;51.546;7.002;2022-07-29T16:03:51;23.96;54.73
65652;SHT30;52350;51.546;7.002;2022-07-29T16:06:17;23.93;55.66
65652;SHT30;52350;51.546;7.002;2022-07-29T16:08:43;23.87;56.65
65652;SHT30;52350;51.546;7.002;2022-07-29T16:11:09;23.75;56.99
65652;SHT30;52350;51.546;7.002;2022-07-29T16:13:34;23.72;56.92
65652;SHT30;52350;51.546;7.002;2022-07-29T16:16:00;23.63;55.67
65652;SHT30;52350;51.546;7.002;2022-07-29T16:18:26;23.70;56.56
65652;SHT30;52350;51.546;7.002;2022-07-29T16:20:51;23.73;56.87
65652;SHT30;52350;51.546;7.002;2022-07-29T16:23:17;23.75;56.89
65652;SHT30;52350;51.546;7.002;2022-07-29T16:25:42;23.69;56.51
65652;SHT30;52350;51.546;7.002;2022-07-29T16:28:08;23.66;56.84
65652;SHT30;52350;51.546;7.002;2022-07-29T16:30:34;23.69;56.22
65652;SHT30;52350;51.546;7.002;2022-07-29T16:33:00;23.68;56.81
65652;SHT30;52350;51.546;7.002;2022-07-29T16:35:26;23.62;56.13
65652;SHT30;52350;51.546;7.002;2022-07-29T16:37:51;23.57;56.97
65652;SHT30;52350;51.546;7.002;2022-07-29T16:40:17;23.62;56.76
65652;SHT30;52350;51.546;7.002;2022-07-29T16:42:42;23.59;56.98